createdAt,value
2019-01-19T00:01:57.344Z,73.10
2019-01-19T00:04:34.989Z,73.00
2019-01-19T00:07:12.383Z,72.60
2019-01-19T00:09:46.698Z,73.20
2019-01-19T00:12:33.584Z,73.10
2019-01-19T00:15:03.343Z,72.90
2019-01-19T00:17:49.939Z,73.20
2019-01-19T00:20:30.761Z,73.20
2019-01-19T00:23:14.605Z,73.80
2019-01-19T00:26:09.967Z,74.10
2019-01-19T00:28:50.408Z,73.90
2019-01-19T00:31:48.876Z,73.40
2019-01-19T00:34:38.351Z,73.80
2019-01-19T00:37:15.913Z,74.50
2019-01-19T00:39:55.868Z,73.60
2019-01-19T00:42:36.878Z,74.90
2019-01-19T00:45:08.600Z,74.00
2019-01-19T00:47:48.966Z,74.00
2019-01-19T00:50:29.554Z,76.40
2019-01-19T00:53:04.343Z,76.30
2019-01-19T00:55:52.428Z,76.00
2019-01-19T00:58:26.674Z,76.60
2019-01-19T01:01:09.664Z,75.80
2019-01-19T01:03:46.921Z,76.40
2019-01-19T01:06:24.740Z,75.60
2019-01-19T01:09:08.374Z,75.90
2019-01-19T01:11:40.098Z,74.60
2019-01-19T01:14:28.096Z,76.40
2019-01-19T01:17:02.882Z,77.60
2019-01-19T01:19:55.533Z,77.40
2019-01-19T01:22:29.698Z,77.20
2019-01-19T01:25:04.746Z,77.60
2019-01-19T01:27:42.410Z,78.10
2019-01-19T01:30:29.146Z,77.60
2019-01-19T01:33:12.100Z,75.20
2019-01-19T01:36:06.350Z,77.00
2019-01-19T01:38:46.738Z,76.70
2019-01-19T01:41:51.679Z,74.90
2019-01-19T01:44:45.989Z,75.20
2019-01-19T01:47:35.838Z,75.40
2019-01-19T01:50:19.520Z,75.10
2019-01-19T01:53:02.930Z,75.60
2019-01-19T01:55:34.666Z,76.00
2019-01-19T01:58:09.196Z,76.00
2019-01-19T02:00:49.802Z,75.30
2019-01-19T02:03:42.615Z,75.20
2019-01-19T02:06:29.342Z,74.70
2019-01-19T02:09:09.550Z,74.60
2019-01-19T02:11:57.866Z,75.20
2019-01-19T02:14:29.514Z,75.50
2019-01-19T02:17:06.768Z,74.80
2019-01-19T02:19:57.812Z,75.60
2019-01-19T02:22:37.837Z,75.30
2019-01-19T02:25:27.686Z,77.20
2019-01-19T02:28:14.360Z,77.20
2019-01-19T02:30:57.871Z,76.60
2019-01-19T02:33:44.623Z,76.10
2019-01-19T02:36:21.895Z,74.70
2019-01-19T02:39:12.991Z,76.50
2019-01-19T02:41:47.458Z,76.00
2019-01-19T02:44:19.138Z,75.20
2019-01-19T02:46:56.479Z,76.60
2019-01-19T02:49:40.110Z,75.80
2019-01-19T02:52:17.432Z,74.90
2019-01-19T02:55:08.630Z,75.60
2019-01-19T02:57:46.261Z,74.70
2019-01-19T03:00:32.739Z,74.90
2019-01-19T03:03:20.663Z,75.00
2019-01-19T03:05:57.964Z,75.40
2019-01-19T03:08:35.586Z,74.60
2019-01-19T03:11:13.010Z,74.90
2019-01-19T03:13:47.101Z,74.60
2019-01-19T03:16:24.816Z,75.10
2019-01-19T03:19:11.270Z,75.20
2019-01-19T03:21:58.202Z,75.20
2019-01-19T03:24:35.883Z,75.50
2019-01-19T03:27:13.607Z,75.40
2019-01-19T03:30:00.363Z,75.80
2019-01-19T03:32:34.610Z,75.90
2019-01-19T03:35:15.300Z,75.30
2019-01-19T03:38:10.559Z,75.00
2019-01-19T03:40:51.535Z,75.50
2019-01-19T03:43:40.990Z,75.00
2019-01-19T03:46:15.418Z,75.50
2019-01-19T03:49:06.651Z,75.60
2019-01-19T03:51:56.663Z,75.40
2019-01-19T03:54:39.710Z,74.80
2019-01-19T03:57:14.050Z,75.90
2019-01-19T03:59:54.434Z,75.90
2019-01-19T04:02:26.114Z,75.10
2019-01-19T04:05:03.441Z,74.40
2019-01-19T04:07:38.011Z,74.80
2019-01-19T04:10:30.758Z,74.40
2019-01-19T04:13:05.154Z,73.90
2019-01-19T04:15:58.086Z,74.60
2019-01-19T04:18:29.793Z,75.20
2019-01-19T04:21:19.452Z,75.60
2019-01-19T04:23:51.126Z,76.30
2019-01-19T04:26:22.242Z,75.90
2019-01-19T04:28:51.101Z,74.80
2019-01-19T04:31:19.763Z,75.40
2019-01-19T04:33:48.598Z,75.10
2019-01-19T04:36:21.771Z,74.40
2019-01-19T04:38:47.736Z,75.50
2019-01-19T04:41:16.294Z,76.20
2019-01-19T04:43:44.946Z,75.10
2019-01-19T04:46:13.509Z,75.10
2019-01-19T04:48:42.422Z,77.50
2019-01-19T04:51:10.993Z,75.90
2019-01-19T04:53:39.923Z,75.70
2019-01-19T04:56:08.518Z,76.80
2019-01-19T04:58:37.078Z,76.10
2019-01-19T05:01:05.658Z,76.20
2019-01-19T05:03:34.295Z,75.20
2019-01-19T05:06:11.684Z,75.80
2019-01-19T05:08:33.106Z,75.90
2019-01-19T05:11:01.706Z,75.30
2019-01-19T05:13:30.262Z,74.70
2019-01-19T05:15:58.853Z,75.40
2019-01-19T05:18:27.682Z,75.80
2019-01-19T05:20:56.574Z,76.00
2019-01-19T05:23:25.514Z,76.00
2019-01-19T05:25:54.102Z,75.50
2019-01-19T05:28:22.737Z,75.30
2019-01-19T05:30:51.318Z,75.90
2019-01-19T05:33:19.860Z,76.10
2019-01-19T05:35:48.685Z,76.20
2019-01-19T05:38:17.244Z,76.10
2019-01-19T05:40:45.906Z,75.90
2019-01-19T05:43:14.466Z,75.60
2019-01-19T05:45:42.975Z,76.10
2019-01-19T05:48:11.539Z,77.10
2019-01-19T05:50:40.103Z,76.80
2019-01-19T05:53:08.704Z,76.20
2019-01-19T05:55:37.294Z,76.40
2019-01-19T05:58:05.921Z,76.70
2019-01-19T06:00:35.160Z,77.20
2019-01-19T06:03:05.105Z,76.40
2019-01-19T06:05:33.671Z,77.70
2019-01-19T06:08:02.255Z,77.40
2019-01-19T06:10:30.808Z,76.80
2019-01-19T06:12:59.403Z,76.20
2019-01-19T06:15:27.984Z,76.70
2019-01-19T06:17:56.588Z,76.70
2019-01-19T06:20:25.166Z,76.80
2019-01-19T06:22:53.890Z,78.40
2019-01-19T06:25:22.464Z,77.40
2019-01-19T06:27:51.070Z,77.30
2019-01-19T06:30:21.585Z,77.50
2019-01-19T06:32:50.322Z,77.10
2019-01-19T06:35:19.175Z,77.30
2019-01-19T06:37:47.841Z,77.30
2019-01-19T06:40:18.576Z,77.10
2019-01-19T06:42:47.133Z,77.20
2019-01-19T06:45:21.626Z,76.70
2019-01-19T06:47:50.289Z,77.50
2019-01-19T06:50:19.291Z,77.30
2019-01-19T06:52:48.127Z,77.70
2019-01-19T06:55:25.732Z,77.30
2019-01-19T06:57:54.325Z,77.20
2019-01-19T07:00:22.886Z,77.10
2019-01-19T07:02:51.551Z,77.60
2019-01-19T07:05:20.115Z,76.90
2019-01-19T07:07:48.715Z,76.60
2019-01-19T07:10:19.992Z,77.10
2019-01-19T07:12:48.654Z,77.40
2019-01-19T07:15:17.365Z,77.20
2019-01-19T07:17:46.039Z,77.10
2019-01-19T07:20:17.406Z,76.40
2019-01-19T07:22:46.175Z,77.10
2019-01-19T07:25:14.808Z,77.30
2019-01-19T07:27:43.431Z,79.10
2019-01-19T07:30:16.678Z,78.40
2019-01-19T07:32:46.610Z,79.50
2019-01-19T07:35:16.020Z,78.40
2019-01-19T07:37:44.720Z,77.60
2019-01-19T07:40:19.524Z,76.60
2019-01-19T07:42:49.871Z,76.80
2019-01-19T07:45:18.459Z,76.60
2019-01-19T07:47:47.087Z,77.80
2019-01-19T07:50:17.990Z,77.30
2019-01-19T07:52:46.795Z,76.70
2019-01-19T07:55:17.234Z,76.80
2019-01-19T07:57:46.057Z,76.60
2019-01-19T08:00:17.846Z,76.90
2019-01-19T08:02:46.482Z,76.00
2019-01-19T08:05:15.066Z,76.20
2019-01-19T08:07:43.568Z,75.80
2019-01-19T08:10:17.105Z,76.40
2019-01-19T08:12:45.991Z,75.90
2019-01-19T08:15:17.387Z,75.60
2019-01-19T08:17:46.187Z,76.00
2019-01-19T08:20:15.790Z,75.70
2019-01-19T08:22:44.419Z,75.10
2019-01-19T08:25:13.751Z,74.70
2019-01-19T08:27:42.375Z,75.20
2019-01-19T08:30:22.691Z,76.10
2019-01-19T08:32:51.341Z,75.20
2019-01-19T08:35:19.991Z,74.40
2019-01-19T08:37:48.830Z,76.00
2019-01-19T08:40:34.751Z,74.60
2019-01-19T08:43:05.024Z,73.40
2019-01-19T08:45:33.819Z,74.30
2019-01-19T08:48:02.988Z,73.30
2019-01-19T08:50:31.592Z,72.70
2019-01-19T08:53:00.143Z,71.30
2019-01-19T08:55:28.811Z,73.60
2019-01-19T08:57:57.370Z,72.50
2019-01-19T09:00:26.045Z,72.90
2019-01-19T09:02:55.238Z,72.30
2019-01-19T09:05:23.823Z,70.30
2019-01-19T09:07:52.327Z,70.10
2019-01-19T09:10:21.288Z,70.50
2019-01-19T09:12:49.855Z,70.40
2019-01-19T09:15:20.685Z,69.70
2019-01-19T09:17:49.302Z,70.60
2019-01-19T09:20:18.451Z,70.00
2019-01-19T09:22:49.018Z,70.30
2019-01-19T09:25:17.563Z,69.20
2019-01-19T09:27:46.119Z,68.00
2019-01-19T09:30:20.000Z,67.00
2019-01-19T09:32:48.748Z,64.90
2019-01-19T09:35:18.029Z,65.40
2019-01-19T09:37:46.976Z,65.80
2019-01-19T09:40:19.124Z,63.50
2019-01-19T09:42:47.931Z,65.60
2019-01-19T09:45:18.038Z,65.20
2019-01-19T09:47:46.770Z,61.70
2019-01-19T09:50:19.555Z,59.50
2019-01-19T09:52:48.221Z,57.80
2019-01-19T09:55:16.858Z,59.60
2019-01-19T09:57:45.510Z,56.80
2019-01-19T10:00:25.155Z,55.60
2019-01-19T10:02:53.999Z,53.90
2019-01-19T10:05:24.917Z,50.50
2019-01-19T10:07:53.581Z,44.80
2019-01-19T10:10:22.484Z,41.20
2019-01-19T10:12:51.223Z,42.30
2019-01-19T10:15:21.227Z,38.60
2019-01-19T10:17:49.902Z,36.90
2019-01-19T10:20:29.266Z,36.40
2019-01-19T10:22:57.931Z,34.90
2019-01-19T10:25:26.635Z,38.50
2019-01-19T10:27:55.235Z,34.10
2019-01-19T10:30:30.413Z,33.90
2019-01-19T10:32:59.003Z,34.10
2019-01-19T10:35:27.634Z,35.20
2019-01-19T10:38:15.638Z,37.50
2019-01-19T10:40:44.200Z,40.80
2019-01-19T10:43:12.811Z,39.20
2019-01-19T10:45:41.387Z,36.10
2019-01-19T10:48:09.985Z,31.10
2019-01-19T10:50:38.566Z,31.90
2019-01-19T10:53:07.281Z,32.80
2019-01-19T10:55:36.285Z,31.10
2019-01-19T10:58:05.538Z,32.00
2019-01-19T11:00:53.380Z,31.30
2019-01-19T11:03:21.905Z,29.80
2019-01-19T11:05:50.463Z,30.80
2019-01-19T11:08:19.041Z,28.50
2019-01-19T11:10:47.831Z,27.70
2019-01-19T11:13:16.413Z,30.40
2019-01-19T11:15:44.974Z,31.20
2019-01-19T11:18:13.651Z,30.70
2019-01-19T11:20:42.197Z,32.40
2019-01-19T11:23:10.677Z,29.10
2019-01-19T11:25:39.455Z,28.50
2019-01-19T11:28:08.075Z,28.70
2019-01-19T11:30:36.715Z,27.30
2019-01-19T11:33:05.407Z,28.40
2019-01-19T11:35:33.999Z,28.90
2019-01-19T11:38:02.490Z,29.20
2019-01-19T11:40:35.961Z,30.20
2019-01-19T11:43:06.192Z,29.90
2019-01-19T11:45:34.889Z,27.80
2019-01-19T11:48:03.809Z,27.10
2019-01-19T11:50:32.437Z,26.40
2019-01-19T11:53:00.949Z,27.30
2019-01-19T11:55:29.501Z,27.90
2019-01-19T11:58:00.811Z,26.20
2019-01-19T12:00:32.452Z,26.30
2019-01-19T12:03:01.181Z,26.20
2019-01-19T12:05:29.800Z,26.30
2019-01-19T12:07:58.457Z,25.80
2019-01-19T12:10:29.185Z,25.90
2019-01-19T12:12:58.037Z,26.00
2019-01-19T12:15:27.508Z,26.60
2019-01-19T12:17:56.209Z,27.20
2019-01-19T12:20:30.313Z,27.80
2019-01-19T12:22:58.939Z,26.00
2019-01-19T12:25:27.662Z,26.70
2019-01-19T12:27:56.213Z,26.20
2019-01-19T12:30:29.556Z,25.80
2019-01-19T12:32:58.173Z,25.70
2019-01-19T12:35:26.753Z,25.20
2019-01-19T12:37:55.653Z,26.20
2019-01-19T12:40:26.477Z,27.70
2019-01-19T12:43:03.473Z,27.60
2019-01-19T12:45:35.317Z,28.30
2019-01-19T12:48:03.871Z,27.80
2019-01-19T12:50:32.457Z,28.70
2019-01-19T12:53:00.928Z,29.00
2019-01-19T12:55:29.441Z,29.00
2019-01-19T12:57:57.999Z,29.40
2019-01-19T13:00:28.237Z,30.50
2019-01-19T13:02:57.238Z,30.80
2019-01-19T13:05:35.382Z,30.20
2019-01-19T13:08:06.677Z,28.30
2019-01-19T13:10:44.185Z,28.30
2019-01-19T13:13:12.883Z,28.60
2019-01-19T13:15:47.278Z,28.40
2019-01-19T13:18:24.799Z,29.40
2019-01-19T13:21:11.661Z,27.40
2019-01-19T13:24:07.328Z,26.90
2019-01-19T13:27:02.596Z,26.40
2019-01-19T13:29:42.734Z,26.50
2019-01-19T13:32:19.995Z,26.80
2019-01-19T13:35:08.253Z,27.00
2019-01-19T13:37:42.726Z,27.30
2019-01-19T13:40:24.618Z,27.00
2019-01-19T13:43:11.459Z,26.90
2019-01-19T13:45:46.187Z,27.80
2019-01-19T13:48:35.871Z,27.00
2019-01-19T13:51:22.431Z,27.20
2019-01-19T13:54:13.715Z,26.80
2019-01-19T13:57:02.210Z,25.60
2019-01-19T13:59:39.586Z,26.80
2019-01-19T14:02:28.993Z,25.70
2019-01-19T14:05:03.623Z,26.00
2019-01-19T14:07:57.975Z,27.00
2019-01-19T14:10:41.797Z,27.50
2019-01-19T14:13:22.235Z,27.40
2019-01-19T14:15:59.889Z,27.60
2019-01-19T14:18:31.449Z,28.10
2019-01-19T14:21:15.394Z,27.60
2019-01-19T14:24:01.789Z,28.10
2019-01-19T14:26:51.443Z,28.70
2019-01-19T14:29:25.638Z,29.70
2019-01-19T14:31:57.287Z,30.60
2019-01-19T14:34:28.925Z,30.40
2019-01-19T14:37:03.279Z,33.20
2019-01-19T14:39:55.811Z,34.30
2019-01-19T14:42:50.138Z,33.70
2019-01-19T14:45:33.723Z,32.30
2019-01-19T14:48:22.911Z,32.30
2019-01-19T14:51:09.262Z,32.20
2019-01-19T14:53:46.627Z,31.50
2019-01-19T14:56:30.010Z,33.70
2019-01-19T14:59:13.621Z,35.80
2019-01-19T15:01:53.828Z,37.50
2019-01-19T15:04:49.720Z,39.50
2019-01-19T15:07:30.647Z,41.90
2019-01-19T15:10:20.240Z,42.80
2019-01-19T15:12:57.725Z,44.90
2019-01-19T15:15:35.112Z,45.30
2019-01-19T15:18:23.261Z,46.00
2019-01-19T15:20:54.956Z,47.10
2019-01-19T15:23:29.241Z,48.50
2019-01-19T15:26:35.573Z,49.50
2019-01-19T15:29:22.489Z,48.70
2019-01-19T15:32:10.758Z,50.20
2019-01-19T15:35:15.789Z,50.30
2019-01-19T15:37:58.788Z,51.00
2019-01-19T15:40:45.342Z,51.60
2019-01-19T15:43:48.769Z,52.50
2019-01-19T15:46:23.165Z,52.80
2019-01-19T15:49:28.265Z,54.10
2019-01-19T15:51:59.934Z,54.40
2019-01-19T15:54:55.485Z,55.10
2019-01-19T15:57:29.704Z,55.20
2019-01-19T16:00:18.349Z,54.70
2019-01-19T16:03:01.843Z,56.40
2019-01-19T16:05:48.483Z,55.70
2019-01-19T16:08:31.995Z,55.70
2019-01-19T16:11:24.333Z,56.40
2019-01-19T16:14:01.533Z,57.10
2019-01-19T16:16:44.505Z,57.50
2019-01-19T16:19:25.013Z,58.30
2019-01-19T16:22:08.701Z,56.80
2019-01-19T16:24:46.121Z,56.50
2019-01-19T16:27:20.590Z,56.70
2019-01-19T16:30:25.788Z,57.60
2019-01-19T16:33:09.623Z,59.50
2019-01-19T16:36:01.115Z,60.70
2019-01-19T16:38:41.768Z,59.50
2019-01-19T16:41:31.589Z,59.50
2019-01-19T16:44:03.217Z,59.70
2019-01-19T16:46:51.426Z,59.40
2019-01-19T16:49:45.273Z,58.90
2019-01-19T16:52:31.332Z,60.10
2019-01-19T16:55:14.863Z,61.20
2019-01-19T16:58:01.851Z,60.10
2019-01-19T17:00:53.285Z,61.60
2019-01-19T17:03:34.545Z,63.30
2019-01-19T17:06:20.981Z,62.10
2019-01-19T17:09:01.534Z,61.70
2019-01-19T17:11:48.393Z,62.30
2019-01-19T17:14:39.377Z,62.10
2019-01-19T17:17:22.805Z,62.10
2019-01-19T17:20:12.589Z,62.70
2019-01-19T17:22:49.942Z,62.90
2019-01-19T17:25:38.217Z,63.20
2019-01-19T17:28:09.857Z,62.60
2019-01-19T17:30:53.609Z,61.80
2019-01-19T17:33:49.585Z,62.10
2019-01-19T17:36:23.949Z,61.90
2019-01-19T17:38:58.541Z,61.50
2019-01-19T17:41:55.689Z,62.10
2019-01-19T17:44:32.951Z,62.90
2019-01-19T17:47:04.633Z,63.30
2019-01-19T17:49:45.239Z,62.30
2019-01-19T17:52:25.925Z,61.60
2019-01-19T17:55:05.294Z,62.70
2019-01-19T17:57:46.228Z,62.20
2019-01-19T18:00:24.129Z,62.80
2019-01-19T18:02:55.813Z,62.50
2019-01-19T18:05:36.658Z,63.10
2019-01-19T18:08:29.762Z,63.60
2019-01-19T18:11:10.501Z,62.60
2019-01-19T18:14:00.546Z,63.30
2019-01-19T18:16:48.687Z,63.10
2019-01-19T18:19:22.906Z,63.10
2019-01-19T18:21:54.590Z,62.80
2019-01-19T18:24:50.217Z,63.10
2019-01-19T18:27:36.514Z,62.20
2019-01-19T18:30:26.326Z,62.90
2019-01-19T18:33:07.969Z,64.80
2019-01-19T18:35:45.809Z,63.60
2019-01-19T18:38:44.744Z,64.30
2019-01-19T18:41:21.974Z,64.00
2019-01-19T18:44:02.283Z,63.40
2019-01-19T18:46:49.066Z,64.20
2019-01-19T18:49:52.633Z,64.20
2019-01-19T18:52:30.213Z,64.30
2019-01-19T18:55:04.606Z,64.70
2019-01-19T18:57:54.561Z,65.50
2019-01-19T19:00:44.566Z,65.30
2019-01-19T19:03:49.786Z,65.70
2019-01-19T19:06:41.206Z,65.20
2019-01-19T19:09:29.182Z,64.60
2019-01-19T19:12:03.630Z,65.70
2019-01-19T19:14:49.682Z,66.20
2019-01-19T19:17:42.366Z,65.30
2019-01-19T19:20:38.188Z,66.20
2019-01-19T19:23:09.898Z,66.40
2019-01-19T19:25:53.577Z,66.70
2019-01-19T19:28:49.246Z,66.60
2019-01-19T19:31:23.758Z,66.60
2019-01-19T19:34:07.404Z,66.70
2019-01-19T19:36:45.117Z,67.00
2019-01-19T19:39:28.487Z,67.40
2019-01-19T19:42:02.654Z,67.40
2019-01-19T19:44:43.358Z,67.10
2019-01-19T19:47:23.746Z,66.50
2019-01-19T19:50:07.566Z,67.00
2019-01-19T19:52:36.158Z,68.00
2019-01-19T19:55:03.567Z,68.20
2019-01-19T19:57:32.122Z,68.50
2019-01-19T20:00:00.798Z,67.80
2019-01-19T20:02:29.298Z,68.00
2019-01-19T20:04:57.976Z,69.00
2019-01-19T20:07:26.531Z,69.70
2019-01-19T20:09:55.130Z,69.70
2019-01-19T20:12:23.708Z,70.50
2019-01-19T20:14:52.290Z,71.10
2019-01-19T20:17:20.946Z,71.30
2019-01-19T20:19:49.458Z,71.80
2019-01-19T20:22:18.022Z,71.80
2019-01-19T20:24:46.701Z,71.20
2019-01-19T20:27:15.276Z,70.80
2019-01-19T20:29:43.837Z,71.70
2019-01-19T20:32:12.416Z,71.10
2019-01-19T20:34:41.036Z,71.20
2019-01-19T20:37:09.693Z,71.50
2019-01-19T20:39:38.247Z,71.90
2019-01-19T20:42:06.914Z,71.70
2019-01-19T20:44:35.500Z,71.30
2019-01-19T20:47:04.463Z,71.50
2019-01-19T20:49:33.121Z,71.50
2019-01-19T20:52:01.671Z,71.60
2019-01-19T20:54:30.303Z,72.30
2019-01-19T20:56:58.859Z,72.90
2019-01-19T20:59:27.446Z,73.40
2019-01-19T21:01:55.946Z,73.20
2019-01-19T21:04:24.576Z,72.50
2019-01-19T21:06:53.270Z,73.20
2019-01-19T21:09:21.919Z,72.40
2019-01-19T21:11:50.467Z,72.40
2019-01-19T21:14:19.063Z,72.30
2019-01-19T21:16:47.618Z,71.30
2019-01-19T21:19:16.142Z,71.60
2019-01-19T21:21:44.702Z,71.70
2019-01-19T21:24:13.259Z,71.90
2019-01-19T21:26:41.852Z,71.30
2019-01-19T21:29:10.406Z,70.50
2019-01-19T21:31:38.994Z,70.20
2019-01-19T21:34:07.636Z,70.00
2019-01-19T21:36:36.273Z,70.30
2019-01-19T21:39:07.097Z,69.90
2019-01-19T21:41:35.675Z,69.40
2019-01-19T21:44:04.674Z,69.20
2019-01-19T21:46:33.263Z,68.40
2019-01-19T21:49:01.903Z,67.90
2019-01-19T21:51:32.757Z,68.90
2019-01-19T21:54:01.248Z,68.70
2019-01-19T21:56:29.858Z,67.70
2019-01-19T21:58:58.414Z,68.50
2019-01-19T22:01:26.935Z,68.60
2019-01-19T22:03:55.490Z,68.80
2019-01-19T22:06:24.006Z,68.60
2019-01-19T22:08:52.614Z,68.90
2019-01-19T22:11:21.230Z,68.60
2019-01-19T22:13:49.789Z,69.30
2019-01-19T22:16:18.374Z,70.10
2019-01-19T22:18:46.858Z,69.60
2019-01-19T22:21:15.455Z,69.80
2019-01-19T22:23:44.022Z,69.90
2019-01-19T22:26:14.247Z,70.20
2019-01-19T22:28:42.802Z,70.00
2019-01-19T22:31:11.390Z,69.70
2019-01-19T22:33:40.182Z,68.70
2019-01-19T22:36:08.802Z,69.30
2019-01-19T22:38:37.470Z,69.40
2019-01-19T22:41:06.090Z,69.10
2019-01-19T22:43:34.918Z,70.20
2019-01-19T22:46:03.645Z,70.80
2019-01-19T22:48:32.302Z,70.70
2019-01-19T22:51:00.934Z,71.40
2019-01-19T22:53:29.588Z,70.50
2019-01-19T22:55:58.142Z,70.10
2019-01-19T22:58:26.666Z,69.70
2019-01-19T23:01:02.738Z,70.10
2019-01-19T23:03:32.658Z,71.00
2019-01-19T23:06:01.210Z,70.70
2019-01-19T23:08:29.866Z,70.70
2019-01-19T23:11:01.326Z,70.80
2019-01-19T23:13:28.733Z,70.80
2019-01-19T23:15:57.206Z,70.40
2019-01-19T23:18:25.799Z,69.80
2019-01-19T23:20:54.424Z,70.50
2019-01-19T23:23:23.047Z,71.30
2019-01-19T23:25:51.598Z,73.50
2019-01-19T23:28:20.188Z,73.60
2019-01-19T23:30:48.811Z,72.60
2019-01-19T23:33:17.394Z,71.80
2019-01-19T23:35:45.919Z,71.70
2019-01-19T23:38:14.510Z,71.10
2019-01-19T23:40:43.068Z,71.20
2019-01-19T23:43:11.704Z,71.10
2019-01-19T23:45:40.258Z,71.10
2019-01-19T23:48:08.847Z,70.70
2019-01-19T23:50:37.430Z,71.40
2019-01-19T23:53:06.166Z,73.90
2019-01-19T23:55:34.723Z,73.00
2019-01-19T23:58:03.279Z,74.90
